createdAt,value
2023-01-19T00:00:27.842Z,18.60
2023-01-19T00:01:27.965Z,18.40
2023-01-19T00:02:28.162Z,16.90
2023-01-19T00:03:28.297Z,16.30
2023-01-19T00:04:28.456Z,16.10
2023-01-19T00:05:28.633Z,17.30
2023-01-19T00:06:28.929Z,16.40
2023-01-19T00:07:28.957Z,15.30
2023-01-19T00:08:29.119Z,15.90
2023-01-19T00:09:29.299Z,16.80
2023-01-19T00:10:29.459Z,16.50
2023-01-19T00:11:29.658Z,15.60
2023-01-19T00:12:29.821Z,15.90
2023-01-19T00:13:29.984Z,16.10
2023-01-19T00:14:30.151Z,14.90
2023-01-19T00:15:30.334Z,14.80
2023-01-19T00:16:30.535Z,15.40
2023-01-19T00:17:30.656Z,17.50
2023-01-19T00:18:30.826Z,16.50
2023-01-19T00:19:31.023Z,17.40
2023-01-19T00:20:31.189Z,15.50
2023-01-19T00:21:31.383Z,16.30
2023-01-19T00:22:31.529Z,15.60
2023-01-19T00:23:31.703Z,15.70
2023-01-19T00:24:31.879Z,17.30
2023-01-19T00:25:32.048Z,14.60
2023-01-19T00:26:32.266Z,17.10
2023-01-19T00:27:32.411Z,15.60
2023-01-19T00:28:32.601Z,15.80
2023-01-19T00:29:32.737Z,14.80
2023-01-19T00:30:32.935Z,15.70
2023-01-19T00:31:33.175Z,15.70
2023-01-19T00:32:33.291Z,15.60
2023-01-19T00:33:33.475Z,14.30
2023-01-19T00:34:33.659Z,15.40
2023-01-19T00:35:33.818Z,15.50
2023-01-19T00:36:34.001Z,16.30
2023-01-19T00:37:34.150Z,16.40
2023-01-19T00:38:34.322Z,15.00
2023-01-19T00:39:34.563Z,16.80
2023-01-19T00:40:34.677Z,14.90
2023-01-19T00:41:34.868Z,16.20
2023-01-19T00:42:35.025Z,15.10
2023-01-19T00:43:35.216Z,14.70
2023-01-19T00:44:35.375Z,15.40
2023-01-19T00:45:35.574Z,15.60
2023-01-19T00:46:35.702Z,15.40
2023-01-19T00:47:35.889Z,16.40
2023-01-19T00:48:36.081Z,17.10
2023-01-19T00:49:36.222Z,17.20
2023-01-19T00:50:36.430Z,14.20
2023-01-19T00:51:36.557Z,16.30
2023-01-19T00:52:36.733Z,16.90
2023-01-19T00:53:36.895Z,15.70
2023-01-19T00:54:37.083Z,17.10
2023-01-19T00:55:37.243Z,15.50
2023-01-19T00:56:37.427Z,17.10
2023-01-19T00:57:37.602Z,16.30
2023-01-19T00:58:37.795Z,14.90
2023-01-19T00:59:37.992Z,16.80
2023-01-19T01:00:38.142Z,15.50
2023-01-19T01:01:45.085Z,17.20
2023-01-19T01:02:39.595Z,17.80
2023-01-19T01:03:38.659Z,15.90
2023-01-19T01:04:38.838Z,16.40
2023-01-19T01:05:38.997Z,17.00
2023-01-19T01:06:39.147Z,17.20
2023-01-19T01:07:39.313Z,16.20
2023-01-19T01:08:39.495Z,16.30
2023-01-19T01:09:39.665Z,15.10
2023-01-19T01:10:39.832Z,17.10
2023-01-19T01:11:40.005Z,16.60
2023-01-19T01:12:40.233Z,15.80
2023-01-19T01:13:40.349Z,15.20
2023-01-19T01:14:40.536Z,15.80
2023-01-19T01:15:40.679Z,15.90
2023-01-19T01:16:40.951Z,13.60
2023-01-19T01:17:41.051Z,15.70
2023-01-19T01:18:41.221Z,16.50
2023-01-19T01:19:41.405Z,17.10
2023-01-19T01:20:41.553Z,16.60
2023-01-19T01:21:41.716Z,17.10
2023-01-19T01:22:41.906Z,14.60
2023-01-19T01:23:42.058Z,16.70
2023-01-19T01:24:42.234Z,14.60
2023-01-19T01:25:42.389Z,15.90
2023-01-19T01:26:42.584Z,16.00
2023-01-19T01:27:42.741Z,18.00
2023-01-19T01:28:42.951Z,14.40
2023-01-19T01:29:43.100Z,16.30
2023-01-19T01:30:43.271Z,17.80
2023-01-19T01:31:43.500Z,16.60
2023-01-19T01:32:43.620Z,18.40
2023-01-19T01:33:43.785Z,15.20
2023-01-19T01:34:43.950Z,16.30
2023-01-19T01:35:44.092Z,15.70
2023-01-19T01:36:44.298Z,16.10
2023-01-19T01:37:44.491Z,17.10
2023-01-19T01:38:44.661Z,16.00
2023-01-19T01:39:44.816Z,17.10
2023-01-19T01:40:45.013Z,17.40
2023-01-19T01:41:45.136Z,17.60
2023-01-19T01:42:45.307Z,14.60
2023-01-19T01:43:45.513Z,16.30
2023-01-19T01:44:45.657Z,16.40
2023-01-19T01:45:45.882Z,17.50
2023-01-19T01:46:46.009Z,16.00
2023-01-19T01:47:46.192Z,16.80
2023-01-19T01:48:46.427Z,15.60
2023-01-19T01:49:46.568Z,16.20
2023-01-19T01:50:46.721Z,17.20
2023-01-19T01:51:46.900Z,15.60
2023-01-19T01:53:06.725Z,15.20
2023-01-19T01:53:48.251Z,17.20
2023-01-19T01:54:47.389Z,14.70
2023-01-19T01:55:47.579Z,17.10
2023-01-19T01:56:47.743Z,15.20
2023-01-19T01:57:47.897Z,16.20
2023-01-19T01:58:48.089Z,15.60
2023-01-19T01:59:48.246Z,16.90
2023-01-19T02:00:48.494Z,15.20
2023-01-19T02:01:48.714Z,15.60
2023-01-19T02:02:48.738Z,16.20
2023-01-19T02:03:48.943Z,18.00
2023-01-19T02:04:49.104Z,15.30
2023-01-19T02:05:49.307Z,16.20
2023-01-19T02:06:49.457Z,16.50
2023-01-19T02:07:49.636Z,17.20
2023-01-19T02:08:49.781Z,16.80
2023-01-19T02:09:49.943Z,16.50
2023-01-19T02:10:50.131Z,16.00
2023-01-19T02:11:50.268Z,15.50
2023-01-19T02:12:50.466Z,16.70
2023-01-19T02:13:50.683Z,15.30
2023-01-19T02:14:50.844Z,15.50
2023-01-19T02:15:51.006Z,16.80
2023-01-19T02:16:51.231Z,14.80
2023-01-19T02:17:51.335Z,16.10
2023-01-19T02:18:51.516Z,17.80
2023-01-19T02:19:51.656Z,16.90
2023-01-19T02:20:51.814Z,15.00
2023-01-19T02:21:51.992Z,16.20
2023-01-19T02:22:52.164Z,16.50
2023-01-19T02:23:52.366Z,16.20
2023-01-19T02:24:52.520Z,18.80
2023-01-19T02:25:52.709Z,15.70
2023-01-19T02:26:52.864Z,15.80
2023-01-19T02:27:53.055Z,15.00
2023-01-19T02:28:53.206Z,16.10
2023-01-19T02:29:53.404Z,16.20
2023-01-19T02:30:53.672Z,14.80
2023-01-19T02:31:53.774Z,16.40
2023-01-19T02:32:53.906Z,16.10
2023-01-19T02:33:54.091Z,15.20
2023-01-19T02:34:54.269Z,16.00
2023-01-19T02:35:54.435Z,16.50
2023-01-19T02:36:54.655Z,18.00
2023-01-19T02:37:54.764Z,15.80
2023-01-19T02:38:54.936Z,15.20
2023-01-19T02:39:55.132Z,15.40
2023-01-19T02:40:55.290Z,16.60
2023-01-19T02:41:55.453Z,15.30
2023-01-19T02:42:55.596Z,15.90
2023-01-19T02:43:55.787Z,16.60
2023-01-19T02:44:55.970Z,15.70
2023-01-19T02:45:56.228Z,15.90
2023-01-19T02:46:56.331Z,14.80
2023-01-19T02:47:56.478Z,15.30
2023-01-19T02:48:56.678Z,17.10
2023-01-19T02:49:56.846Z,16.10
2023-01-19T02:50:57.058Z,15.00
2023-01-19T02:51:57.212Z,15.20
2023-01-19T02:52:57.561Z,16.00
2023-01-19T02:53:57.580Z,16.20
2023-01-19T02:54:57.759Z,15.90
2023-01-19T02:55:57.996Z,15.80
2023-01-19T02:56:58.108Z,15.50
2023-01-19T02:57:58.295Z,18.00
2023-01-19T02:58:58.456Z,17.20
2023-01-19T02:59:58.634Z,16.60
2023-01-19T03:00:59.011Z,15.40
2023-01-19T03:01:59.001Z,16.20
2023-01-19T03:02:59.604Z,18.50
2023-01-19T03:03:59.300Z,15.70
2023-01-19T03:04:59.472Z,15.20
2023-01-19T03:05:59.659Z,15.40
2023-01-19T03:06:59.820Z,16.70
2023-01-19T03:07:59.989Z,16.60
2023-01-19T03:09:00.174Z,17.70
2023-01-19T03:10:00.333Z,15.50
2023-01-19T03:11:00.548Z,16.80
2023-01-19T03:12:00.704Z,17.50
2023-01-19T03:13:01.147Z,15.00
2023-01-19T03:14:01.974Z,15.90
2023-01-19T03:15:01.246Z,16.70
2023-01-19T03:16:01.386Z,14.50
2023-01-19T03:17:01.591Z,17.00
2023-01-19T03:18:01.724Z,16.80
2023-01-19T03:19:01.920Z,16.70
2023-01-19T03:20:02.076Z,16.20
2023-01-19T03:21:02.263Z,16.00
2023-01-19T03:22:02.419Z,17.30
2023-01-19T03:23:03.069Z,17.70
2023-01-19T03:24:02.766Z,15.00
2023-01-19T03:25:03.012Z,16.80
2023-01-19T03:26:03.102Z,17.00
2023-01-19T03:27:03.266Z,16.90
2023-01-19T03:28:03.435Z,16.30
2023-01-19T03:29:03.601Z,17.60
2023-01-19T03:30:03.774Z,17.90
2023-01-19T03:31:03.958Z,16.10
2023-01-19T03:32:04.121Z,18.00
2023-01-19T03:33:04.303Z,15.60
2023-01-19T03:34:04.505Z,16.60
2023-01-19T03:35:04.639Z,15.70
2023-01-19T03:36:04.808Z,16.20
2023-01-19T03:37:04.975Z,17.80
2023-01-19T03:38:05.170Z,17.10
2023-01-19T03:39:05.334Z,16.30
2023-01-19T03:40:05.492Z,16.60
2023-01-19T03:41:05.663Z,15.90
2023-01-19T03:42:05.831Z,16.00
2023-01-19T03:43:06.009Z,16.90
2023-01-19T03:44:06.181Z,16.90
2023-01-19T03:45:06.341Z,15.80
2023-01-19T03:46:06.531Z,17.00
2023-01-19T03:47:06.683Z,16.80
2023-01-19T03:48:06.842Z,16.40
2023-01-19T03:49:07.012Z,17.80
2023-01-19T03:50:07.190Z,17.30
2023-01-19T03:51:07.381Z,16.00
2023-01-19T03:52:07.570Z,17.80
2023-01-19T03:53:07.705Z,15.40
2023-01-19T03:54:07.867Z,15.50
2023-01-19T03:55:08.040Z,16.60
2023-01-19T03:56:08.209Z,17.40
2023-01-19T03:57:08.429Z,18.20
2023-01-19T03:58:08.568Z,16.40
2023-01-19T03:59:08.728Z,16.80
2023-01-19T04:00:08.894Z,17.20
2023-01-19T04:01:09.131Z,15.10
2023-01-19T04:02:09.326Z,18.30
2023-01-19T04:03:09.426Z,16.70
2023-01-19T04:04:09.563Z,17.20
2023-01-19T04:05:09.744Z,16.50
2023-01-19T04:06:09.904Z,16.80
2023-01-19T04:07:10.088Z,16.40
2023-01-19T04:08:10.256Z,16.90
2023-01-19T04:09:10.415Z,17.00
2023-01-19T04:10:10.587Z,18.00
2023-01-19T04:11:10.748Z,17.00
2023-01-19T04:12:10.921Z,15.80
2023-01-19T04:13:11.159Z,19.20
2023-01-19T04:14:11.275Z,18.70
2023-01-19T04:15:11.446Z,17.00
2023-01-19T04:16:11.620Z,17.60
2023-01-19T04:17:11.794Z,18.40
2023-01-19T04:18:11.965Z,17.60
2023-01-19T04:19:12.139Z,17.50
2023-01-19T04:20:12.293Z,17.90
2023-01-19T04:21:12.486Z,19.00
2023-01-19T04:22:12.653Z,18.40
2023-01-19T04:23:12.823Z,17.80
2023-01-19T04:24:12.984Z,17.60
2023-01-19T04:25:13.166Z,17.70
2023-01-19T04:26:13.324Z,18.30
2023-01-19T04:27:13.517Z,16.30
2023-01-19T04:28:13.696Z,17.50
2023-01-19T04:29:13.878Z,17.40
2023-01-19T04:30:14.038Z,17.90
2023-01-19T04:31:14.250Z,17.90
2023-01-19T04:32:14.395Z,17.60
2023-01-19T04:33:14.558Z,17.00
2023-01-19T04:34:14.720Z,18.70
2023-01-19T04:35:14.899Z,18.50
2023-01-19T04:36:15.070Z,18.20
2023-01-19T04:37:15.262Z,17.80
2023-01-19T04:38:15.421Z,19.20
2023-01-19T04:39:15.586Z,16.60
2023-01-19T04:40:15.756Z,16.90
2023-01-19T04:41:15.941Z,19.00
2023-01-19T04:42:16.131Z,17.70
2023-01-19T04:43:16.266Z,18.00
2023-01-19T04:44:16.495Z,17.50
2023-01-19T04:45:16.621Z,18.10
2023-01-19T04:46:16.814Z,18.80
2023-01-19T04:47:16.967Z,17.70
2023-01-19T04:48:17.160Z,17.40
2023-01-19T04:49:17.289Z,18.90
2023-01-19T04:50:17.472Z,18.90
2023-01-19T04:51:17.629Z,16.70
2023-01-19T04:52:17.825Z,17.60
2023-01-19T04:53:17.965Z,18.20
2023-01-19T04:54:18.189Z,18.50
2023-01-19T04:55:18.287Z,17.50
2023-01-19T04:56:18.463Z,17.70
2023-01-19T04:57:18.671Z,17.90
2023-01-19T04:58:18.801Z,17.40
2023-01-19T04:59:18.980Z,16.70
2023-01-19T05:00:19.150Z,17.10
2023-01-19T05:01:19.389Z,18.00
2023-01-19T05:02:19.493Z,17.30
2023-01-19T05:03:19.685Z,17.50
2023-01-19T05:04:19.843Z,17.20
2023-01-19T05:05:20.012Z,17.80
2023-01-19T05:06:20.201Z,17.10
2023-01-19T05:07:20.361Z,18.00
2023-01-19T05:08:20.546Z,20.00
2023-01-19T05:09:20.711Z,17.80
2023-01-19T05:10:20.877Z,17.70
2023-01-19T05:11:21.038Z,18.10
2023-01-19T05:12:21.221Z,17.90
2023-01-19T05:13:21.403Z,18.40
2023-01-19T05:14:21.572Z,17.60
2023-01-19T05:15:21.731Z,18.40
2023-01-19T05:16:21.984Z,18.00
2023-01-19T05:17:22.102Z,16.70
2023-01-19T05:18:22.240Z,17.10
2023-01-19T05:19:22.405Z,16.40
2023-01-19T05:20:22.578Z,17.70
2023-01-19T05:21:22.742Z,18.20
2023-01-19T05:22:22.942Z,17.60
2023-01-19T05:23:23.102Z,18.90
2023-01-19T05:24:23.265Z,16.40
2023-01-19T05:25:23.433Z,17.50
2023-01-19T05:26:23.603Z,17.80
2023-01-19T05:27:23.795Z,17.70
2023-01-19T05:28:23.956Z,15.40
2023-01-19T05:29:24.124Z,17.70
2023-01-19T05:30:24.336Z,17.00
2023-01-19T05:31:24.561Z,16.20
2023-01-19T05:32:24.660Z,17.50
2023-01-19T05:33:24.817Z,17.00
2023-01-19T05:34:25.003Z,18.70
2023-01-19T05:35:35.297Z,16.70
2023-01-19T05:36:26.356Z,16.40
2023-01-19T05:37:25.558Z,16.20
2023-01-19T05:38:34.512Z,16.70
2023-01-19T05:39:26.887Z,17.00
2023-01-19T05:40:26.081Z,18.80
2023-01-19T05:41:26.230Z,17.00
2023-01-19T05:42:26.412Z,17.70
2023-01-19T05:43:26.577Z,19.40
2023-01-19T05:44:26.753Z,18.70
2023-01-19T05:45:26.920Z,19.80
2023-01-19T05:46:27.142Z,17.30
2023-01-19T05:47:27.270Z,17.00
2023-01-19T05:48:27.452Z,18.00
2023-01-19T05:49:27.632Z,18.40
2023-01-19T05:50:27.826Z,19.10
2023-01-19T05:51:27.970Z,19.40
2023-01-19T05:52:28.154Z,20.10
2023-01-19T05:53:28.325Z,17.00
2023-01-19T05:54:28.499Z,17.00
2023-01-19T05:55:28.673Z,17.90
2023-01-19T05:56:28.841Z,17.70
2023-01-19T05:57:29.017Z,18.20
2023-01-19T05:58:29.203Z,18.50
2023-01-19T05:59:29.360Z,16.50
2023-01-19T06:00:29.515Z,17.60
2023-01-19T06:01:29.674Z,18.80
2023-01-19T06:02:29.889Z,17.00
2023-01-19T06:03:30.048Z,17.10
2023-01-19T06:04:30.204Z,17.40
2023-01-19T06:05:30.391Z,17.70
2023-01-19T06:06:30.570Z,17.10
2023-01-19T06:07:30.753Z,17.90
2023-01-19T06:08:30.932Z,18.10
2023-01-19T06:09:31.121Z,17.30
2023-01-19T06:10:31.263Z,18.40
2023-01-19T06:11:31.437Z,17.10
2023-01-19T06:12:31.610Z,17.60
2023-01-19T06:13:31.805Z,16.60
2023-01-19T06:14:31.976Z,17.40
2023-01-19T06:15:32.140Z,17.90
2023-01-19T06:16:32.368Z,17.10
2023-01-19T06:17:32.490Z,16.40
2023-01-19T06:18:32.664Z,17.00
2023-01-19T06:19:32.827Z,16.30
2023-01-19T06:20:32.997Z,17.50
2023-01-19T06:21:33.170Z,18.60
2023-01-19T06:22:33.358Z,17.80
2023-01-19T06:23:33.499Z,16.50
2023-01-19T06:24:33.679Z,16.10
2023-01-19T06:25:33.844Z,17.60
2023-01-19T06:26:34.008Z,17.50
2023-01-19T06:27:34.187Z,18.60
2023-01-19T06:28:34.337Z,17.20
2023-01-19T06:29:34.525Z,17.70
2023-01-19T06:30:34.728Z,16.70
2023-01-19T06:31:34.928Z,15.50
2023-01-19T06:32:35.051Z,16.00
2023-01-19T06:33:35.221Z,17.10
2023-01-19T06:34:35.388Z,16.30
2023-01-19T06:35:35.546Z,15.70
2023-01-19T06:36:35.729Z,9.80
2023-01-19T06:37:35.904Z,11.30
2023-01-19T06:38:36.069Z,13.10
2023-01-19T06:39:36.219Z,13.80
2023-01-19T06:40:36.378Z,14.60
2023-01-19T06:41:36.572Z,13.30
2023-01-19T06:42:36.760Z,13.40
2023-01-19T06:43:36.931Z,12.80
2023-01-19T06:44:37.088Z,12.30
2023-01-19T06:45:37.285Z,13.80
2023-01-19T06:46:37.451Z,12.50
2023-01-19T06:47:37.660Z,12.40
2023-01-19T06:48:37.849Z,11.90
2023-01-19T06:49:37.999Z,13.60
2023-01-19T06:50:38.201Z,13.80
2023-01-19T06:51:38.385Z,12.90
2023-01-19T06:52:38.571Z,13.00
2023-01-19T06:53:38.781Z,14.00
2023-01-19T06:54:38.943Z,14.20
2023-01-19T06:55:39.097Z,13.60
2023-01-19T06:56:39.267Z,15.60
2023-01-19T06:57:39.411Z,15.30
2023-01-19T06:58:39.598Z,13.90
2023-01-19T06:59:39.733Z,15.40
2023-01-19T07:00:39.912Z,13.30
2023-01-19T07:01:40.173Z,15.60
2023-01-19T07:02:40.329Z,14.70
2023-01-19T07:03:40.426Z,14.00
2023-01-19T07:04:40.625Z,14.50
2023-01-19T07:05:40.753Z,13.70
2023-01-19T07:06:40.932Z,14.30
2023-01-19T07:07:41.113Z,14.70
2023-01-19T07:08:41.313Z,14.80
2023-01-19T07:09:41.452Z,14.50
2023-01-19T07:11:26.171Z,15.00
2023-01-19T07:11:42.793Z,13.90
2023-01-19T07:12:41.986Z,14.80
2023-01-19T07:13:42.112Z,16.10
2023-01-19T07:14:42.288Z,15.80
2023-01-19T07:15:42.454Z,15.40
2023-01-19T07:16:42.746Z,15.10
2023-01-19T07:17:42.838Z,15.60
2023-01-19T07:18:42.975Z,15.80
2023-01-19T07:19:43.175Z,17.40
2023-01-19T07:20:43.323Z,15.10
2023-01-19T07:21:43.495Z,15.50
2023-01-19T07:22:43.695Z,15.00
2023-01-19T07:23:43.875Z,16.20
2023-01-19T07:24:44.056Z,14.30
2023-01-19T07:25:44.240Z,15.10
2023-01-19T07:26:44.418Z,13.30
2023-01-19T07:27:44.566Z,15.40
2023-01-19T07:28:46.785Z,15.30
2023-01-19T07:29:44.930Z,14.80
2023-01-19T07:30:45.139Z,14.90
2023-01-19T07:31:45.389Z,15.50
2023-01-19T07:32:45.436Z,14.90
2023-01-19T07:33:45.602Z,13.70
2023-01-19T07:34:45.811Z,15.90
2023-01-19T07:35:45.987Z,16.50
2023-01-19T07:36:46.169Z,14.80
2023-01-19T07:37:46.342Z,14.90
2023-01-19T07:38:46.500Z,14.50
2023-01-19T07:39:46.653Z,16.20
2023-01-19T07:40:46.839Z,15.20
2023-01-19T07:41:47.024Z,13.90
2023-01-19T07:42:47.247Z,14.50
2023-01-19T07:43:47.355Z,14.20
2023-01-19T07:44:47.528Z,14.90
2023-01-19T07:45:47.755Z,14.50
2023-01-19T07:46:47.883Z,15.50
2023-01-19T07:47:48.070Z,15.40
2023-01-19T07:48:48.238Z,14.60
2023-01-19T07:49:48.418Z,14.70
2023-01-19T07:50:48.593Z,14.30
2023-01-19T07:51:48.789Z,14.60
2023-01-19T07:52:48.952Z,15.20
2023-01-19T07:53:49.129Z,17.30
2023-01-19T07:54:49.350Z,14.90
2023-01-19T07:55:49.481Z,16.90
2023-01-19T07:56:49.661Z,15.40
2023-01-19T07:57:49.821Z,15.60
2023-01-19T07:58:50.063Z,14.00
2023-01-19T07:59:50.192Z,15.00
2023-01-19T08:00:50.468Z,15.60
2023-01-19T08:01:50.681Z,14.50
2023-01-19T08:02:50.690Z,15.20
2023-01-19T08:03:50.883Z,15.70
2023-01-19T08:04:51.059Z,14.10
2023-01-19T08:05:51.190Z,15.00
2023-01-19T08:06:51.362Z,14.00
2023-01-19T08:07:53.323Z,13.80
2023-01-19T08:08:51.703Z,14.00
2023-01-19T08:09:51.875Z,15.10
2023-01-19T08:10:52.052Z,13.20
2023-01-19T08:11:52.193Z,16.20
2023-01-19T08:12:52.374Z,13.40
2023-01-19T08:13:52.553Z,12.90
2023-01-19T08:14:52.792Z,13.70
2023-01-19T08:15:53.026Z,14.20
2023-01-19T08:16:53.064Z,14.40
2023-01-19T08:17:53.339Z,13.70
2023-01-19T08:18:53.420Z,14.60
2023-01-19T08:19:53.565Z,13.70
2023-01-19T08:20:53.734Z,14.80
2023-01-19T08:21:53.902Z,13.20
2023-01-19T08:22:54.075Z,13.60
2023-01-19T08:23:54.344Z,13.30
2023-01-19T08:24:54.438Z,13.10
2023-01-19T08:25:54.595Z,13.60
2023-01-19T08:26:54.756Z,13.80
2023-01-19T08:27:54.936Z,15.60
2023-01-19T08:28:55.119Z,13.90
2023-01-19T08:29:55.280Z,12.90
2023-01-19T08:30:55.593Z,13.30
2023-01-19T08:31:55.741Z,14.00
2023-01-19T08:32:55.799Z,14.00
2023-01-19T08:33:55.981Z,13.70
2023-01-19T08:34:56.156Z,12.90
2023-01-19T08:35:56.384Z,12.80
2023-01-19T08:36:56.495Z,12.30
2023-01-19T08:37:56.689Z,12.60
2023-01-19T08:38:56.858Z,12.50
2023-01-19T08:39:57.023Z,11.70
2023-01-19T08:40:57.176Z,14.30
2023-01-19T08:41:57.347Z,12.70
2023-01-19T08:42:57.540Z,13.00
2023-01-19T08:43:57.718Z,12.00
2023-01-19T08:44:58.663Z,13.30
2023-01-19T08:45:58.085Z,12.50
2023-01-19T08:46:58.222Z,12.20
2023-01-19T08:47:58.388Z,12.70
2023-01-19T08:48:58.559Z,12.20
2023-01-19T08:49:58.741Z,12.60
2023-01-19T08:50:58.920Z,12.60
2023-01-19T08:51:59.052Z,13.20
2023-01-19T08:52:59.672Z,12.40
2023-01-19T08:53:59.400Z,12.60
2023-01-19T08:54:59.569Z,15.50
2023-01-19T08:55:59.735Z,14.50
2023-01-19T08:56:59.899Z,15.10
2023-01-19T08:58:00.661Z,15.00
2023-01-19T08:59:09.298Z,14.60
2023-01-19T09:00:01.431Z,12.80
2023-01-19T09:01:02.593Z,12.10
2023-01-19T09:02:00.903Z,13.00
2023-01-19T09:03:01.478Z,12.30
2023-01-19T09:04:01.110Z,13.30
2023-01-19T09:05:01.281Z,12.40
2023-01-19T09:06:01.462Z,12.00
2023-01-19T09:07:01.642Z,12.70
2023-01-19T09:08:02.163Z,12.80
2023-01-19T09:09:01.985Z,12.70
2023-01-19T09:10:02.207Z,10.80
2023-01-19T09:11:02.331Z,11.10
2023-01-19T09:12:02.549Z,11.00
2023-01-19T09:13:02.704Z,11.50
2023-01-19T09:14:02.851Z,11.90
2023-01-19T09:15:03.025Z,11.00
2023-01-19T09:16:03.280Z,11.40
2023-01-19T09:17:03.375Z,8.00
2023-01-19T09:18:03.807Z,11.50
2023-01-19T09:19:03.716Z,10.20
2023-01-19T09:20:03.924Z,11.50
2023-01-19T09:21:04.092Z,14.80
2023-01-19T09:22:04.244Z,12.50
2023-01-19T09:23:04.438Z,11.40
2023-01-19T09:24:04.610Z,10.80
2023-01-19T09:25:04.782Z,11.60
2023-01-19T09:26:04.959Z,11.20
2023-01-19T09:27:05.141Z,11.70
2023-01-19T09:28:05.333Z,10.30
2023-01-19T09:29:05.485Z,10.60
2023-01-19T09:30:05.656Z,9.70
2023-01-19T09:31:05.908Z,10.30
2023-01-19T09:32:05.991Z,11.00
2023-01-19T09:33:06.161Z,11.60
2023-01-19T09:34:06.341Z,11.10
2023-01-19T09:35:06.522Z,10.50
2023-01-19T09:36:06.692Z,10.20
2023-01-19T09:37:06.867Z,11.10
2023-01-19T09:38:07.067Z,17.20
2023-01-19T09:39:07.228Z,9.70
2023-01-19T09:40:07.442Z,9.00
2023-01-19T09:41:07.568Z,9.20
2023-01-19T09:42:07.729Z,10.20
2023-01-19T09:43:07.932Z,9.40
2023-01-19T09:44:08.099Z,9.80
2023-01-19T09:45:08.338Z,11.00
2023-01-19T09:46:08.484Z,9.80
2023-01-19T09:47:08.594Z,8.90
2023-01-19T09:48:08.770Z,9.10
2023-01-19T09:49:08.962Z,9.80
2023-01-19T09:50:09.135Z,10.00
2023-01-19T09:51:09.311Z,12.00
2023-01-19T09:52:09.503Z,9.00
2023-01-19T09:53:09.660Z,9.60
2023-01-19T09:54:09.858Z,9.40
2023-01-19T09:55:09.998Z,9.60
2023-01-19T09:56:10.184Z,11.30
2023-01-19T09:57:10.320Z,10.80
2023-01-19T09:58:10.494Z,10.70
2023-01-19T09:59:10.686Z,10.90
2023-01-19T10:00:10.867Z,10.20
2023-01-19T10:01:11.164Z,9.50
2023-01-19T10:02:11.226Z,10.70
2023-01-19T10:03:11.462Z,10.00
2023-01-19T10:04:11.594Z,10.00
2023-01-19T10:05:11.756Z,10.20
2023-01-19T10:06:11.931Z,9.90
2023-01-19T10:07:12.054Z,9.50
2023-01-19T10:08:12.231Z,9.00
2023-01-19T10:09:12.395Z,9.70
2023-01-19T10:10:12.588Z,10.40
2023-01-19T10:11:12.724Z,10.40
2023-01-19T10:12:12.905Z,9.60
2023-01-19T10:13:13.065Z,10.60
2023-01-19T10:14:13.247Z,10.00
2023-01-19T10:15:13.452Z,10.80
2023-01-19T10:16:13.646Z,9.70
2023-01-19T10:17:13.752Z,8.90
2023-01-19T10:18:13.912Z,8.60
2023-01-19T10:19:14.077Z,8.60
2023-01-19T10:20:14.259Z,11.10
2023-01-19T10:21:14.402Z,9.90
2023-01-19T10:22:14.573Z,11.60
2023-01-19T10:23:14.756Z,9.40
2023-01-19T10:24:14.940Z,9.70
2023-01-19T10:25:15.119Z,10.20
2023-01-19T10:26:15.308Z,10.10
2023-01-19T10:27:15.460Z,9.10
2023-01-19T10:28:15.663Z,9.20
2023-01-19T10:29:15.822Z,10.70
2023-01-19T10:30:15.981Z,10.10
2023-01-19T10:31:16.309Z,9.90
2023-01-19T10:32:16.309Z,10.30
2023-01-19T10:33:16.501Z,9.30
2023-01-19T10:34:19.802Z,11.40
2023-01-19T10:35:17.834Z,11.00
2023-01-19T10:36:17.012Z,9.70
2023-01-19T10:37:17.199Z,9.80
2023-01-19T10:38:17.406Z,9.00
2023-01-19T10:39:17.552Z,9.70
2023-01-19T10:40:17.731Z,9.80
2023-01-19T10:41:17.876Z,9.70
2023-01-19T10:42:18.059Z,9.60
2023-01-19T10:43:18.213Z,10.00
2023-01-19T10:44:18.394Z,9.90
2023-01-19T10:45:18.601Z,10.00
2023-01-19T10:46:18.817Z,10.40
2023-01-19T10:47:18.960Z,9.90
2023-01-19T10:48:19.097Z,10.30
2023-01-19T10:49:19.295Z,8.50
2023-01-19T10:50:19.503Z,11.10
2023-01-19T10:51:19.699Z,9.50
2023-01-19T10:52:19.947Z,10.30
2023-01-19T10:53:20.062Z,11.00
2023-01-19T10:54:20.221Z,10.00
2023-01-19T10:55:20.340Z,10.10
2023-01-19T10:56:20.509Z,10.40
2023-01-19T10:57:20.699Z,10.30
2023-01-19T10:58:20.855Z,9.80
2023-01-19T10:59:21.029Z,10.70
2023-01-19T11:00:21.198Z,9.70
2023-01-19T11:01:21.481Z,9.80
2023-01-19T11:02:21.846Z,10.10
2023-01-19T11:03:21.719Z,10.60
2023-01-19T11:04:21.959Z,9.90
2023-01-19T11:05:22.087Z,10.10
2023-01-19T11:06:22.238Z,10.50
2023-01-19T11:07:22.389Z,9.40
2023-01-19T11:08:22.601Z,10.40
2023-01-19T11:09:22.713Z,9.40
2023-01-19T11:10:22.873Z,11.00
2023-01-19T11:11:23.066Z,11.80
2023-01-19T11:12:23.200Z,9.70
2023-01-19T11:13:23.362Z,10.70
2023-01-19T11:14:23.545Z,12.70
2023-01-19T11:15:23.709Z,9.50
2023-01-19T11:16:23.930Z,14.20
2023-01-19T11:17:24.048Z,11.80
2023-01-19T11:18:24.250Z,11.90
2023-01-19T11:19:24.412Z,13.60
2023-01-19T11:20:24.654Z,12.60
2023-01-19T11:21:25.919Z,10.20
2023-01-19T11:22:24.945Z,9.80
2023-01-19T11:23:25.140Z,10.80
2023-01-19T11:24:25.295Z,11.30
2023-01-19T11:25:25.502Z,11.20
2023-01-19T11:26:25.663Z,10.10
2023-01-19T11:27:25.829Z,10.30
2023-01-19T11:28:26.009Z,9.50
2023-01-19T11:29:26.192Z,9.50
2023-01-19T11:30:26.400Z,9.90
2023-01-19T11:31:26.628Z,13.30
2023-01-19T11:32:26.685Z,10.70
2023-01-19T11:33:26.899Z,11.00
2023-01-19T11:34:27.035Z,12.20
2023-01-19T11:35:27.250Z,12.10
2023-01-19T11:36:27.390Z,10.10
2023-01-19T11:37:27.556Z,9.90
2023-01-19T11:38:27.744Z,9.10
2023-01-19T11:39:27.960Z,10.40
2023-01-19T11:40:28.087Z,10.50
2023-01-19T11:41:28.269Z,9.90
2023-01-19T11:42:28.447Z,8.70
2023-01-19T11:43:36.620Z,9.10
2023-01-19T11:44:29.792Z,9.30
2023-01-19T11:45:29.022Z,7.80
2023-01-19T11:46:29.135Z,11.00
2023-01-19T11:47:29.306Z,10.80
2023-01-19T11:48:29.505Z,10.80
2023-01-19T11:49:29.672Z,10.00
2023-01-19T11:50:29.821Z,9.40
2023-01-19T11:51:29.991Z,8.60
2023-01-19T11:52:30.178Z,9.30
2023-01-19T11:53:30.332Z,8.30
2023-01-19T11:54:30.510Z,8.00
2023-01-19T11:55:30.683Z,8.60
2023-01-19T11:56:30.856Z,7.90
2023-01-19T11:57:31.059Z,8.30
2023-01-19T11:58:31.189Z,7.60
2023-01-19T11:59:31.356Z,5.80
2023-01-19T12:00:31.524Z,6.80
2023-01-19T12:01:31.685Z,7.70
2023-01-19T12:02:31.932Z,6.90
2023-01-19T12:03:32.038Z,6.80
2023-01-19T12:04:32.185Z,9.50
2023-01-19T12:05:32.357Z,10.10
2023-01-19T12:06:32.522Z,8.80
2023-01-19T12:07:32.697Z,8.20
2023-01-19T12:08:32.886Z,9.20
2023-01-19T12:09:33.045Z,12.10
2023-01-19T12:10:33.227Z,7.40
2023-01-19T12:11:33.410Z,8.40
2023-01-19T12:12:33.604Z,8.50
2023-01-19T12:13:33.744Z,10.30
2023-01-19T12:14:33.945Z,8.20
2023-01-19T12:15:34.119Z,8.40
2023-01-19T12:16:34.340Z,7.40
2023-01-19T12:17:34.458Z,8.90
2023-01-19T12:18:34.640Z,8.30
2023-01-19T12:19:34.811Z,7.90
2023-01-19T12:20:34.999Z,7.70
2023-01-19T12:21:35.190Z,7.70
2023-01-19T12:22:35.369Z,8.10
2023-01-19T12:23:35.519Z,7.80
2023-01-19T12:24:35.760Z,7.10
2023-01-19T12:25:35.916Z,7.90
2023-01-19T12:26:36.075Z,7.90
2023-01-19T12:27:36.252Z,8.00
2023-01-19T12:28:36.416Z,8.80
2023-01-19T12:29:36.594Z,8.10
2023-01-19T12:30:36.823Z,8.20
2023-01-19T12:31:37.007Z,7.50
2023-01-19T12:32:37.152Z,8.10
2023-01-19T12:33:37.348Z,8.10
2023-01-19T12:34:37.507Z,8.50
2023-01-19T12:35:37.676Z,8.90
2023-01-19T12:36:37.854Z,8.90
2023-01-19T12:37:38.054Z,10.30
2023-01-19T12:38:38.194Z,8.20
2023-01-19T12:39:38.396Z,8.40
2023-01-19T12:40:38.557Z,8.60
2023-01-19T12:41:38.741Z,8.10
2023-01-19T12:42:38.878Z,7.80
2023-01-19T12:43:39.083Z,7.70
2023-01-19T12:44:39.266Z,7.50
2023-01-19T12:45:39.427Z,9.70
2023-01-19T12:46:39.610Z,9.50
2023-01-19T12:47:39.769Z,8.70
2023-01-19T12:48:39.952Z,8.20
2023-01-19T12:49:40.112Z,7.90
2023-01-19T12:50:40.303Z,9.30
2023-01-19T12:51:40.473Z,8.40
2023-01-19T12:52:40.652Z,8.00
2023-01-19T12:53:40.843Z,8.60
2023-01-19T12:54:41.000Z,8.10
2023-01-19T12:55:41.180Z,8.30
2023-01-19T12:56:41.367Z,8.70
2023-01-19T12:57:41.537Z,8.40
2023-01-19T12:58:41.711Z,8.50